Colorado AWOS List, Phone Numbers, Maps

USA |  
| Search AWOS

Rocky Mountain States: Montana | Wyoming | Colorado | New Mexico

Complete weather reports: Colorado

Legend: KFNL = METAR available Follow your local AWOS on AV Mobile = METAR available on AV Mobile
Station Colorado Location Frequency Phone
KBKFFAA ID BKF, KBKF 031658Z 05004KT 10SM SCT025 22/15 A3022 Follow KBKF on AV Mobile Aurora, Buckley Air Force Base Airport
K7BMFAA ID 7BM, AWOS-3, K7BM 311434Z AUTO 00000KT 10SM CLR 12/03 A3045 RMK AO2 Follow K7BM on AV Mobile Cottonwood Pass 132.050 303-512-4919
KBDUFAA ID BDU, AWOS-3, KBDU 031659Z AUTO 13003KT 10SM SCT021 22/16 A3019 RMK AO2 Follow KBDU on AV Mobile Boulder Municipal Airport 118.825 303-541-9540
KITRFAA ID ITR, ASOS, KITR 031653Z AUTO 16003KT 10SM FEW080 25/11 A3014 RMK AO2 SLP153 T02500106 Follow KITR on AV Mobile Kit Carson County Airport 135.225 719-346-7036
K1V6FAA ID 1V6, AWOS-3, K1V6 031650Z AUTO 14005KT 10SM CLR 25/15 A3019 RMK AO2 Follow K1V6 on AV Mobile CANON CITY 120.025
KAFFFAA ID AFF, KAFF 031658Z AUTO 18011G15KT 10SM CLR 22/13 A3025 RMK AO2 SLP159 T02160133 Follow KAFF on AV Mobile Air Force Academy
KFLYFAA ID FLY, AWOS-3PT, KFLY 031655Z AUTO 18010KT 10SM CLR 21/13 A3030 RMK AO2 T02120127 Follow KFLY on AV Mobile Meadowlake Airport, Peyton, CO 118.450 719-683-5371
KCCUFAA ID CCU, AWOS-3, KCCU 031655Z AUTO 29017G28KT 10SM CLR 16/00 A3063 RMK AO2 Follow KCCU on AV Mobile Copper Mountain, Red Cliff Pass 118.075 970-968-1715
KDNRICAO ID KDNR Denver / Stapleton International, Co.
KFTGFAA ID FTG, AWOS-3, KFTG 031658Z 15004KT 50SM FEW120 23/14 A3021 Follow KFTG on AV Mobile Front Range Airport 119.025 303-261-9104
K4V5ICAO ID K4V5 Durango Aviation Weather Reporting Station
KDROFAA ID DRO, ASOS, KDRO 031653Z AUTO VRB04KT 10SM CLR 24/11 A3027 RMK AO2 SLP158 T02440106 $ Follow KDRO on AV Mobile DURANGO-LA PLATA COUNTY AIRPORT 120.625 970-259-3579
KEGEFAA ID EGE, AWOS-3, KEGE 031650Z 00000KT 10SM FEW120 25/07 A3023 Follow KEGE on AV Mobile Eagle County Regional 135.575 970-524-7386
KEIKFAA ID EIK, AWOS-3, KEIK 031655Z AUTO 00000KT 10SM CLR 23/15 A3018 RMK AO2 T02270147 Follow KEIK on AV Mobile Erie Municipal Airport 133.825 303-604-4339
KFCSFAA ID FCS, KFCS 031558Z AUTO VRB05KT 10SM CLR 21/14 A3023 RMK AO2 SLP184 T02070143 Follow KFCS on AV Mobile Fort Carson
KFCLICAO ID KFCL Fort Collins Supplementary Aviation Weather Reporting Station
KFNLFAA ID FNL, AWOS-3, KFNL 031655Z AUTO 00000KT 10SM CLR 22/14 A3019 RMK AO1 Follow KFNL on AV Mobile Fort Collins/Loveland, Fort Collins-Loveland Municipal Airport 135.075 970-669-9187
KFMMFAA ID FMM, AWOS-3, KFMM 031655Z AUTO 07006KT 10SM CLR 25/11 A3017 RMK AO2 T02540110 Follow KFMM on AV Mobile Fort Morgan Municipal Airport 132.950 970-867-4823
KGNBFAA ID GNB, AWOS-1 Granby-Grand County Airport 119.925 970-887-1803
KGJTFAA ID GJT, ASOS, KGJT 031653Z 17011KT 10SM CLR 31/09 A3007 Follow KGJT on AV Mobile GRAND JUNCTION WALKER FIELD 118.550 970-245-7881
KGXYFAA ID GXY, AWOS-3, KGXY 031655Z AUTO 01004KT 10SM FEW028 23/16 A3018 RMK AO1 Follow KGXY on AV Mobile Greeley, Greeley-Weld County Airport 135.175 970-352-3511
K2V9ICAO ID K2V9 Gunnison Aviation Weather Reporting Station
KGUCFAA ID GUC, AWOS-3, KGUC 031655Z 08008KT 10SM CLR 20/09 A3038 RMK AO1 Follow KGUC on AV Mobile Gunnison, Gunnison-Crested Butte Regional Airport 135.075 970-641-3240
KHDNFAA ID HDN, AWOS-3, KHDN 031655Z AUTO 00000KT 10SM CLR 25/06 A3022 RMK AO1 Follow KHDN on AV Mobile Hayden, Yampa Valley Airport 119.275 970-276-3690
KHEQFAA ID HEQ, AWOS-3, KHEQ 031655Z AUTO 00000KT 10SM CLR 27/12 A3011 RMK AO2 Follow KHEQ on AV Mobile Holyoke Airport 119.275 970-854-3679
K20VFAA ID 20V, AWOS-3, K20V 031655Z AUTO 27003KT 10SM CLR 24/04 A3030 RMK AO2 Follow K20V on AV Mobile Kremmling, Mc Elroy Airfield 118.425 970-724-9659
KLHXFAA ID LHX, ASOS, KLHX 031653Z AUTO VRB03KT 10SM CLR 27/14 A3013 RMK AO2 SLP141 T02670144 Follow KLHX on AV Mobile LA JUNTA MUNICIPAL AIRPORT 135.525 719-384-5961
KVTPFAA ID VTP, AWOS-3, KVTP 031653Z AUTO 10SM SCT110 17/07 A3052 RMK AO2 LTG DSNT S Follow KVTP on AV Mobile La Veta Mountain, La Veta Pass 119.925 719-587-3120
KLAAFAA ID LAA, ASOS, KLAA 031653Z AUTO 21005KT 7SM BKN070 26/17 A3009 RMK AO2 SLP141 T02610167 TSNO Follow KLAA on AV Mobile LAMAR MUNICIPAL AIRPORT 135.625 719-336-3854
KLXVFAA ID LXV, ASOS, KLXV 031653Z AUTO 00000KT 10SM CLR 19/03 A3045 Follow KLXV on AV Mobile LEADVILLE LAKE CO 118.375 719-486-2735
KLICFAA ID LIC, ASOS, KLIC 031655Z AUTO VRB05KT 10SM CLR 23/13 A3021 RMK AO2 SLP155 T02330133 Follow KLIC on AV Mobile LIMON MUNICIPAL AIRPORT 121.125 719-775-0515
KLMOFAA ID LMO, AWOS-3, KLMO 031655Z AUTO 04003KT 10SM CLR 25/15 A3019 RMK AO2 T02510149 Follow KLMO on AV Mobile Vance Brand Airport 120.000 303-684-7545
KEEOFAA ID EEO, ASOS, KEEO 031653Z AUTO 10003KT 10SM CLR 26/08 A3020 RMK AO2 SLP126 T02610083 Follow KEEO on AV Mobile MEEKER AIRPORT 135.525 970-878-5036
KMYPFAA ID MYP, AWOS-3, KMYP 031647Z AUTO 24006KT 10SM CLR 10/06 A3074 RMK AO2 Follow KMYP on AV Mobile Salida Mountain, Monarch Pass 124.175 719-539-4436
KMTJFAA ID MTJ, ASOS, KMTJ 031653Z AUTO 08007KT 10SM CLR 29/07 A3017 RMK AO2 SLP114 T02940072 Follow KMTJ on AV Mobile MONTROSE REGIONAL AIRPORT 135.225 970-249-1534
KMNHFAA ID MNH, AWOS-3, KMNH 022238Z AUTO 00000KT 10SM SCT055 23/09 A3030 RMK AO2 Follow KMNH on AV Mobile Elbert Mountain, Monument Pass 134.375 303-648-3479
K3MWFAA ID 3MW, AWOS-3, K3MW 211630Z AUTO RMK AO2 TSNO PWINO Follow K3MW on AV Mobile Mount Werner 127.125 970-871-5640
KCRVICAO ID KCRV Nederland Mountain, Corona Pass
KPSOFAA ID PSO, AWOS-3, KPSO 031655Z AUTO 25005KT 10SM TS CLR 22/08 A3035 RMK AO2 LTG DSNT NE T02220075 Follow KPSO on AV Mobile Stevens Field Airport 127.175 970-731-0365
KPEFICAO ID KPEF Peterson Air Force Base
KPUXICAO ID KPUX Pueblo NEXRAD
KPUBFAA ID PUB, ASOS, KPUB 031653Z AUTO 00000KT 10SM CLR 27/13 A3015 Follow KPUB on AV Mobile PUEBLO MEMORIAL AIRPORT 125.250 719-948-2803
K1V1ICAO ID K1V1 Rifle Aviation Weather Reporting Station
KRILFAA ID RIL, ASOS, KRIL 031653Z AUTO 02004KT 10SM CLR 28/07 A3013 RMK AO2 SLP119 T02830072 Follow KRIL on AV Mobile RIFLE GARFIELD COUNTY RGNL 135.275 970-625-2206
K04VFAA ID 04V, AWOS-3, K04V 031656Z AUTO 32003KT 10SM BKN120 16/11 A3039 RMK AO2 PWINO Follow K04V on AV Mobile Saguache, Saguache Municipal Airport 118.625 719-655-2229
KS29ICAO ID KS29 Salida
KSPDICAO ID KSPD, KSPD 031656Z AUTO VRB03KT 28/13 A3013 RMK AO1 SLP136 T02780128 Follow KSPD on AV Mobile SPRINGFIELD COMANCHE NATL
KSBSFAA ID SBS, AWOS-3, KSBS 031655Z AUTO 00000KT 10SM CLR 24/07 A3024 RMK AO1 T02370066 Follow KSBS on AV Mobile Steamboat Springs 118.325 970-879-7794
KSTKFAA ID STK, AWOS-3, KSTK 031645Z AUTO 00000KT 10SM CLR 24/14 RMK AO2 Follow KSTK on AV Mobile Sterling Municipal Airport 118.525 970-526-3009
K5SMFAA ID 5SM, AWOS-3, K5SM 031652Z AUTO 00000KT 10SM CLR 18/09 A3057 RMK AO2 Follow K5SM on AV Mobile Sunlight 126.075 970-384-3380
KTEXFAA ID TEX, AWOS-3, KTEX 031655Z AUTO 00000KT 10SM SCT120 17/10 A3047 RMK AO2 T01710099 Follow KTEX on AV Mobile Telluride, Telluride Regional Airport 118.325 970-728-1534
KTADFAA ID TAD, ASOS, KTAD 031654Z AUTO 14004KT 10SM CLR 26/13 A3021 RMK AO2 SLP146 T02560133 Follow KTAD on AV Mobile Trinidad, Perry Stokes Airport 119.025 719-845-1156
K33VFAA ID 33V, AWOS-3, K33V 031655Z AUTO 24004KT 10SM CLR 21/07 A3034 RMK AO2 Follow K33V on AV Mobile WALDEN 118.625 970-723-4513
4V1FAA ID 4V1, AWOS-3, KTEX 070640Z AUTO 15005KT 10SM CLR 02/M16 A3038 RMK AO2 T00201164 Follow  on AV Mobile Spanish Peaks Airfield 123.600 719-738-1053
K4BMFAA ID 4BM, AWOS-3, K4BM 031656Z AUTO 00000KT 10SM CLR 15/08 A3061 RMK AO2 Follow K4BM on AV Mobile Wilkerson Pass 132.3 303-512-4418
KC96ICAO ID KC96 Winter Park Resort
KCPWFAA ID CPW, AWOS-3, KCPW 281834Z AUTO 00000KT RMK AO2 PWINO Follow KCPW on AV Mobile Pagosa Springs, Wolf Creek Pass 121.125 970-264-2180
K2V5FAA ID 2V5, AWOS-3, K2V5 031655Z AUTO 11004KT 10SM SCT110 26/13 A3011 RMK AO2 T02630126 Follow K2V5 on AV Mobile Wray Municipal Airport 118.250 970-332-5930

Click on the AV Mobile icon AV Mobile icon by any station to follow that AWOS feed on AirportView.net Mobile.

Legend: Commercial service airport with AWOS Commercial Airport AWOSNon-Commercial service airport with AWOS Non-Commercial Airport AWOS
Airport AWOS - Click symbol for weather report Fort Morgan Municipal Airport KFMM 031655Z AUTO 07006KT 10SM CLR 25/11 A3017 RMK AO2 T02540110 Telluride, Telluride Regional Airport KTEX 031655Z AUTO 00000KT 10SM SCT120 17/10 A3047 RMK AO2 T01710099 Greeley, Greeley-Weld County Airport KGXY 031655Z AUTO 01004KT 10SM FEW028 23/16 A3018 RMK AO1 Front Range Airport KFTG 031658Z 15004KT 50SM FEW120 23/14 A3021 Fort Collins/Loveland, Fort Collins-Loveland Municipal Airport KFNL 031655Z AUTO 00000KT 10SM CLR 22/14 A3019 RMK AO1 Boulder Municipal Airport KBDU 031659Z AUTO 13003KT 10SM SCT021 22/16 A3019 RMK AO2 Vance Brand Airport KLMO 031655Z AUTO 04003KT 10SM CLR 25/15 A3019 RMK AO2 T02510149 Sterling Municipal Airport KSTK 031645Z AUTO 00000KT 10SM CLR 24/14 RMK AO2 Holyoke Airport KHEQ 031655Z AUTO 00000KT 10SM CLR 27/12 A3011 RMK AO2 Kit Carson County Airport KITR 031653Z AUTO 16003KT 10SM FEW080 25/11 A3014 RMK AO2 SLP153 T02500106 LIMON MUNICIPAL AIRPORT KLIC 031655Z AUTO VRB05KT 10SM CLR 23/13 A3021 RMK AO2 SLP155 T02330133 LAMAR MUNICIPAL AIRPORT KLAA 031653Z AUTO 21005KT 7SM BKN070 26/17 A3009 RMK AO2 SLP141 T02610167 TSNO LA JUNTA MUNICIPAL AIRPORT KLHX 031653Z AUTO VRB03KT 10SM CLR 27/14 A3013 RMK AO2 SLP141 T02670144 Trinidad, Perry Stokes Airport KTAD 031654Z AUTO 14004KT 10SM CLR 26/13 A3021 RMK AO2 SLP146 T02560133 PUEBLO MEMORIAL AIRPORT KPUB 031653Z AUTO 00000KT 10SM CLR 27/13 A3015 CANON CITY 1V6 Saguache, Saguache Municipal Airport K04V 031656Z AUTO 32003KT 10SM BKN120 16/11 A3039 RMK AO2 PWINO Granby-Grand County Airport KGNB WALDEN 33V Steamboat Springs KSBS 031655Z AUTO 00000KT 10SM CLR 24/07 A3024 RMK AO1 T02370066 Hayden, Yampa Valley Airport KHDN 031655Z AUTO 00000KT 10SM CLR 25/06 A3022 RMK AO1 Kremmling, Mc Elroy Airfield K20V 031655Z AUTO 27003KT 10SM CLR 24/04 A3030 RMK AO2 LEADVILLE LAKE CO KLXV 031653Z AUTO 00000KT 10SM CLR 19/03 A3045 Eagle County Regional KEGE 031650Z 00000KT 10SM FEW120 25/07 A3023 MEEKER AIRPORT KEEO 031653Z AUTO 10003KT 10SM CLR 26/08 A3020 RMK AO2 SLP126 T02610083 Gunnison, Gunnison-Crested Butte Regional Airport KGUC 031655Z 08008KT 10SM CLR 20/09 A3038 RMK AO1 DURANGO-LA PLATA COUNTY AIRPORT  KDRO 031653Z AUTO VRB04KT 10SM CLR 24/11 A3027 RMK AO2 SLP158 T02440106 $ Stevens Field Airport KPSO 031655Z AUTO 25005KT 10SM TS CLR 22/08 A3035 RMK AO2 LTG DSNT NE T02220075 MONTROSE REGIONAL AIRPORT KMTJ 031653Z AUTO 08007KT 10SM CLR 29/07 A3017 RMK AO2 SLP114 T02940072 RIFLE GARFIELD COUNTY RGNL KRIL 031653Z AUTO 02004KT 10SM CLR 28/07 A3013 RMK AO2 SLP119 T02830072 GRAND JUNCTION WALKER FIELD KGJT 031653Z 17011KT 10SM CLR 31/09 A3007 Erie Municipal Airport KEIK 031655Z AUTO 00000KT 10SM CLR 23/15 A3018 RMK AO2 T02270147 Wray Municipal Airport K2V5 031655Z AUTO 11004KT 10SM SCT110 26/13 A3011 RMK AO2 T02630126
Legend: High Mountain AWOS Mountain Pass AWOS
Mountain Pass AWOS - Click symbol for weather report Pagosa Springs, Wolf Creek Pass KCPW 281834Z AUTO 00000KT RMK AO2 PWINO Saguache, Saguache Municipal Airport K04V 031656Z AUTO 32003KT 10SM BKN120 16/11 A3039 RMK AO2 PWINO Kremmling, Mc Elroy Airfield K20V 031655Z AUTO 27003KT 10SM CLR 24/04 A3030 RMK AO2 La Veta Mountain, La Veta Pass KVTP 031653Z AUTO 10SM SCT110 17/07 A3052 RMK AO2 LTG DSNT S Salida Mountain, Monarch Pass KMYP 031647Z AUTO 24006KT 10SM CLR 10/06 A3074 RMK AO2 Cottonwood Pass K7BM 311434Z AUTO 00000KT 10SM CLR 12/03 A3045 RMK AO2 Elbert Mountain, Monument Pass KMNH 022238Z AUTO 00000KT 10SM SCT055 23/09 A3030 RMK AO2 Wilkerson Pass K4BM 031656Z AUTO 00000KT 10SM CLR 15/08 A3061 RMK AO2 Copper Mountain, Red Cliff Pass KCCU 031655Z AUTO 29017G28KT 10SM CLR 16/00 A3063 RMK AO2 Sunlight K5SM 031652Z AUTO 00000KT 10SM CLR 18/09 A3057 RMK AO2 Mount Werner K3MW 211630Z AUTO RMK AO2 TSNO PWINO
Garmin aera 796 $1999 at Avionics Specialists LLC
Bose A20 Aviation Headsets $995 at Avionics Specialists LLC